Cap Guillaume — SZXO — position and weather

sailwx.info

Track history (hours):
 
Tides and Currents Weather Stations Pressure Air Temp Water Temp Dewpoint Dewpoint Depression Visibility Wind Speed Wind Dir Waves Ship Positions

Cap Guillaume

Last reported at 2017-Sep-20 01:40 UTC. Time now 2017-Nov-24 18:15 UTC.
Position N 25°37' W 114°31'.
Warning: this ship's position is months out of date.

Length 274 m; draft 9 m.

Type: Tanker. MMSI: 240556000.

Date/timePositionNaut miles runAvg speedWind from/ knotsBaromVisibWave heightAir tempDewpointWater temp
2017-Sep-20 01:40N 25°37' W 114°31'1 7.3
2017-Sep-20 01:30N 25°37' W 114°32'9 7.1
2017-Sep-20 00:17N 25°45' W 114°38'2 7.3
2017-Sep-20 00:00N 25°46' W 114°39'4 7.2
2017-Sep-19 23:30N 25°49' W 114°41'4 6.9
2017-Sep-19 22:56N 25°53' W 114°44'49 7.1
2017-Sep-19 15:55N 26°32' W 115°16'25 7.4
2017-Sep-19 12:31N 26°53' W 115°32'4 7.1
2017-Sep-19 12:01N 26°56' W 115°34'18 7.3
2017-Sep-19 09:30N 27°11' W 115°47'52 7.5
2017-Sep-19 02:35N 27°53' W 116°21'1 7.5
2017-Sep-19 02:30N 27°54' W 116°21'8 7.3
2017-Sep-19 01:29N 28°01' W 116°24'63 7.7
2017-Sep-18 17:19N 29°02' W 116°43'189 7.9
2017-Sep-17 17:24N 32°04' W 117°39'1010.1
2017-Sep-17 16:22N 32°14' W 117°42'411.6
2017-Sep-17 16:00N 32°18' W 117°43'510.9
2017-Sep-17 15:30N 32°24' W 117°45'5 7.7
2017-Sep-17 14:54N 32°28' W 117°46'410.2
2017-Sep-17 14:31N 32°32' W 117°47'4 7.7
2017-Sep-17 14:00N 32°36' W 117°49'4 7.8
2017-Sep-17 13:30N 32°39' W 117°50'4 7.7
2017-Sep-17 13:01N 32°43' W 117°52'4 7.8
2017-Sep-17 12:30N 32°47' W 117°53'4 7.8
2017-Sep-17 12:00N 32°51' W 117°55'4 7.9
2017-Sep-17 11:30N 32°54' W 117°56'4 7.9
2017-Sep-17 11:00N 32°58' W 117°58'4 8.0
2017-Sep-17 10:30N 33°02' W 117°59'4 7.9
2017-Sep-17 10:00N 33°06' W 118°01'4 7.8
2017-Sep-17 09:30N 33°09' W 118°02'4 7.7
2017-Sep-17 09:00N 33°13' W 118°04'4 7.8
2017-Sep-17 08:31N 33°17' W 118°05'4 7.8
2017-Sep-17 08:01N 33°20' W 118°07'4 7.9
2017-Sep-17 07:30N 33°24' W 118°08'4 8.0
2017-Sep-17 07:00N 33°28' W 118°10'4 8.3
2017-Sep-17 06:31N 33°32' W 118°12'4 8.2
2017-Sep-17 06:00N 33°36' W 118°13'4 8.4
2017-Sep-17 05:30N 33°40' W 118°12'4 7.6
2017-Sep-17 05:00N 33°43' W 118°11'2 0.2
2017-Sep-16 20:06N 33°44' W 118°13'0 0.0
2017-Sep-16 20:00N 33°44' W 118°13'0 0.2
2017-Sep-16 19:27N 33°44' W 118°13'0 0.1
2017-Sep-16 18:57N 33°44' W 118°13'0 0.0
2017-Sep-16 17:21N 33°44' W 118°13'0 0.2
2017-Sep-16 17:00N 33°44' W 118°13'0 0.1
2017-Sep-16 16:03N 33°44' W 118°13'0 0.2
2017-Sep-16 15:48N 33°44' W 118°13'0 1.5
2017-Sep-16 15:30N 33°44' W 118°13'1 0.1
2017-Sep-15 23:31N 33°45' W 118°13'0 0.0
2017-Sep-15 23:25N 33°45' W 118°13'0 0.0
2017-Sep-15 16:28N 33°45' W 118°13'4 4.5
2017-Sep-15 15:35N 33°42' W 118°11'1 3.8
2017-Sep-15 15:23N 33°41' W 118°10'1 1.8
2017-Sep-15 14:53N 33°41' W 118°09'0 0.1
2017-Sep-15 14:29N 33°41' W 118°09'0 0.0
2017-Sep-15 13:59N 33°41' W 118°09'0 0.0
2017-Sep-15 13:29N 33°41' W 118°09'0 0.0
2017-Sep-15 12:59N 33°41' W 118°09'0 0.0
2017-Sep-15 12:29N 33°41' W 118°09'0 0.1
2017-Sep-15 11:59N 33°41' W 118°09'0 0.1
2017-Sep-15 11:29N 33°41' W 118°09'0 0.1
2017-Sep-15 10:59N 33°41' W 118°09'0 0.1
2017-Sep-15 08:56N 33°41' W 118°09'0 0.1
2017-Sep-15 08:29N 33°41' W 118°09'0 0.0
2017-Sep-15 07:47N 33°41' W 118°09'0 0.1
2017-Sep-15 07:29N 33°41' W 118°09'0 0.0
2017-Sep-15 06:59N 33°41' W 118°09'0 0.0
2017-Sep-15 06:20N 33°41' W 118°09'0 0.0
2017-Sep-15 05:44N 33°41' W 118°09'0 0.0
2017-Sep-15 05:26N 33°41' W 118°09'0 0.0
2017-Sep-15 04:56N 33°41' W 118°09'0 0.0
2017-Sep-15 04:17N 33°41' W 118°09'0 0.0
2017-Sep-15 03:08N 33°41' W 118°09'0 0.0
2017-Sep-15 02:53N 33°41' W 118°09'0 0.0
2017-Sep-15 01:50N 33°41' W 118°09'0 0.0
2017-Sep-15 01:26N 33°41' W 118°09'0 0.0
2017-Sep-15 00:38N 33°41' W 118°09'0 0.0
2017-Sep-14 23:26N 33°41' W 118°09'0 0.0
2017-Sep-14 20:35N 33°41' W 118°09'0 0.0
2017-Sep-14 20:26N 33°41' W 118°09'0 0.0
2017-Sep-14 19:38N 33°41' W 118°09'0 0.0
2017-Sep-14 19:26N 33°41' W 118°09'0 0.0
2017-Sep-14 18:56N 33°41' W 118°09'0 0.0
2017-Sep-14 18:17N 33°41' W 118°09'0 0.0
2017-Sep-14 17:59N 33°41' W 118°09'0 0.1
2017-Sep-14 15:26N 33°41' W 118°09'0 0.0
2017-Sep-14 14:41N 33°41' W 118°09'0 0.1
2017-Sep-14 14:20N 33°41' W 118°09'0 0.0
2017-Sep-14 13:59N 33°41' W 118°09'0 0.0
2017-Sep-14 13:29N 33°41' W 118°09'0 0.1
2017-Sep-14 12:59N 33°41' W 118°09'0 0.0
2017-Sep-14 12:29N 33°41' W 118°09'0 0.0
2017-Sep-14 11:59N 33°41' W 118°09'0 0.0
2017-Sep-14 11:29N 33°41' W 118°09'0 0.0
2017-Sep-14 10:59N 33°41' W 118°09'0 0.0
2017-Sep-14 10:23N 33°41' W 118°09'0 0.0
2017-Sep-14 09:59N 33°41' W 118°09'0 0.1
2017-Sep-14 09:29N 33°41' W 118°09'0 0.0
2017-Sep-14 08:59N 33°41' W 118°09'0 0.1
2017-Sep-14 05:41N 33°41' W 118°09'0 0.0
2017-Sep-14 05:20N 33°41' W 118°09'0 0.0
2017-Sep-14 03:53N 33°41' W 118°09'0 0.0
2017-Sep-14 02:56N 33°41' W 118°09'0 0.0
2017-Sep-14 02:26N 33°41' W 118°09'0 0.0
2017-Sep-14 01:56N 33°41' W 118°09'0 0.0
2017-Sep-14 01:26N 33°41' W 118°09'0 0.0
2017-Sep-14 00:50N 33°41' W 118°09'0 0.0
2017-Sep-14 00:26N 33°41' W 118°09'0 0.0
2017-Sep-13 23:56N 33°41' W 118°09'0 0.0
2017-Sep-13 23:29N 33°41' W 118°09'0 0.0
2017-Sep-13 22:56N 33°41' W 118°09'0 0.0
2017-Sep-13 22:26N 33°41' W 118°09'0 0.0
2017-Sep-13 21:44N 33°41' W 118°09'0 0.0
2017-Sep-13 21:26N 33°41' W 118°09'0 0.0
2017-Sep-13 20:56N 33°41' W 118°09'0 0.0
2017-Sep-13 20:05N 33°41' W 118°09'0 0.0
2017-Sep-13 19:50N 33°41' W 118°09'0 0.0
2017-Sep-13 19:26N 33°41' W 118°09'0 0.0
2017-Sep-13 18:32N 33°41' W 118°09'0 0.0
2017-Sep-13 18:29N 33°41' W 118°09'0 0.0
2017-Sep-13 17:50N 33°41' W 118°09'0 0.0
2017-Sep-13 17:26N 33°41' W 118°09'0 0.0
2017-Sep-13 16:56N 33°41' W 118°09'0 0.0
2017-Sep-13 16:29N 33°41' W 118°09'0 0.0
2017-Sep-13 15:14N 33°41' W 118°09'0 0.0
2017-Sep-13 14:59N 33°41' W 118°09'0 0.0
2017-Sep-13 14:11N 33°41' W 118°09'0 0.2
2017-Sep-13 13:53N 33°41' W 118°09'0 0.0
2017-Sep-13 11:50N 33°41' W 118°09'0 0.0
2017-Sep-13 11:26N 33°41' W 118°09'0 0.0
2017-Sep-13 10:32N 33°41' W 118°09'0 0.0
2017-Sep-13 10:08N 33°41' W 118°09'0 0.0
2017-Sep-13 09:50N 33°41' W 118°09'0 0.0
2017-Sep-13 09:26N 33°41' W 118°09'0 0.0
2017-Sep-13 08:50N 33°41' W 118°09'0 0.1
2017-Sep-13 07:50N 33°41' W 118°09'0 0.0
2017-Sep-13 07:26N 33°41' W 118°09'0 0.1
2017-Sep-13 06:44N 33°41' W 118°09'0 0.0
2017-Sep-13 06:29N 33°41' W 118°09'0 0.0
2017-Sep-13 05:56N 33°41' W 118°09'0 0.0
2017-Sep-13 05:26N 33°41' W 118°09'0 0.0
2017-Sep-13 04:59N 33°41' W 118°09'0 0.0
2017-Sep-13 04:20N 33°41' W 118°09'0 0.0
2017-Sep-13 03:59N 33°41' W 118°09'0 0.0
2017-Sep-13 03:29N 33°41' W 118°09'0 0.0
2017-Sep-13 02:59N 33°41' W 118°09'0 0.0
2017-Sep-13 02:29N 33°41' W 118°09'0 0.0
2017-Sep-13 01:59N 33°41' W 118°09'0 0.0
2017-Sep-13 01:29N 33°41' W 118°09'0 0.0
2017-Sep-13 00:59N 33°41' W 118°09'0 0.0
2017-Sep-13 00:29N 33°41' W 118°09'0 0.0
2017-Sep-12 23:59N 33°41' W 118°09'0 0.0
2017-Sep-12 23:29N 33°41' W 118°09'0 0.1
2017-Sep-12 22:59N 33°41' W 118°09'0 0.1
2017-Sep-12 22:29N 33°41' W 118°09'0 0.0
2017-Sep-12 21:59N 33°41' W 118°09'0 0.0
2017-Sep-12 21:29N 33°41' W 118°09'0 0.0
2017-Sep-12 20:59N 33°41' W 118°09'0 0.0
2017-Sep-12 20:29N 33°41' W 118°09'0 0.0
2017-Sep-12 19:59N 33°41' W 118°09'0 0.0
2017-Sep-12 19:21N 33°41' W 118°09'0 0.0
2017-Sep-12 18:48N 33°41' W 118°09'0 0.0
2017-Sep-12 18:18N 33°41' W 118°09'0 0.0
2017-Sep-12 18:00N 33°41' W 118°09'0 0.0
2017-Sep-12 16:48N 33°41' W 118°09'0 0.0
2017-Sep-12 16:30N 33°41' W 118°09'0 0.0
2017-Sep-12 15:54N 33°41' W 118°09'0 0.1
2017-Sep-12 15:30N 33°41' W 118°09'0 0.0
2017-Sep-12 15:00N 33°41' W 118°09'0 0.0
2017-Sep-12 14:30N 33°41' W 118°09'0 0.1
2017-Sep-12 13:54N 33°41' W 118°09'0 0.1
2017-Sep-12 13:27N 33°41' W 118°09'0 0.0
2017-Sep-12 12:45N 33°41' W 118°09'0 0.2
2017-Sep-12 12:27N 33°41' W 118°09'0 0.0
2017-Sep-12 12:00N 33°41' W 118°09'0 0.1
2017-Sep-12 11:30N 33°41' W 118°09'0 0.0
2017-Sep-12 11:00N 33°41' W 118°09'0 0.1
2017-Sep-12 10:30N 33°41' W 118°09'0 0.0
2017-Sep-12 10:00N 33°41' W 118°09'0 0.2
2017-Sep-12 09:30N 33°41' W 118°09'0 0.1
2017-Sep-12 09:00N 33°41' W 118°09'0 0.0
2017-Sep-12 08:30N 33°41' W 118°09'0 0.1
2017-Sep-12 08:00N 33°41' W 118°09'0 0.1
2017-Sep-12 07:27N 33°41' W 118°09'0 0.1
2017-Sep-12 07:00N 33°41' W 118°09'0 0.1
2017-Sep-12 06:30N 33°41' W 118°09'0 0.1
2017-Sep-12 06:00N 33°41' W 118°09'0 0.1
2017-Sep-12 05:30N 33°41' W 118°09'0 0.0
2017-Sep-12 05:00N 33°41' W 118°09'0 0.0
2017-Sep-12 04:30N 33°41' W 118°09'0 0.0
2017-Sep-12 04:00N 33°41' W 118°09'0 0.0
2017-Sep-12 03:30N 33°41' W 118°09'0 0.0
2017-Sep-12 03:00N 33°41' W 118°09'0 0.0
2017-Sep-12 02:30N 33°41' W 118°09'0 0.0
2017-Sep-12 02:00N 33°41' W 118°09'0 0.1
2017-Sep-12 01:30N 33°41' W 118°09'0 0.0
2017-Sep-12 00:57N 33°41' W 118°09'0 0.0
2017-Sep-12 00:30N 33°41' W 118°09'0 0.1
2017-Sep-12 00:00N 33°41' W 118°09'0 0.0
2017-Sep-11 23:30N 33°41' W 118°09'0 0.0
2017-Sep-11 23:00N 33°41' W 118°09'0 0.0
2017-Sep-11 22:30N 33°41' W 118°09'0 0.0
2017-Sep-11 22:00N 33°41' W 118°09'0 0.0
2017-Sep-11 21:30N 33°41' W 118°09'0 0.0
2017-Sep-11 21:00N 33°41' W 118°09'0 0.0
2017-Sep-11 20:27N 33°41' W 118°09'0 0.0
2017-Sep-11 19:57N 33°41' W 118°09'0 0.0
2017-Sep-11 19:30N 33°41' W 118°09'0 0.0
2017-Sep-11 19:00N 33°41' W 118°09'0 0.1
2017-Sep-11 18:30N 33°41' W 118°09'0 0.1
2017-Sep-11 17:57N 33°41' W 118°09'0 0.0
2017-Sep-11 17:30N 33°41' W 118°09'0 0.0
2017-Sep-11 16:54N 33°41' W 118°09'0 0.0
2017-Sep-11 16:30N 33°41' W 118°09'0 0.0
2017-Sep-11 16:00N 33°41' W 118°09'0 0.0
2017-Sep-11 15:30N 33°41' W 118°09'0 0.0
2017-Sep-11 15:00N 33°41' W 118°09'0 0.0
2017-Sep-11 14:30N 33°41' W 118°09'0 0.0
2017-Sep-11 14:00N 33°41' W 118°09'0 0.0
2017-Sep-11 13:24N 33°41' W 118°09'0 0.0
2017-Sep-11 12:57N 33°41' W 118°09'0 0.0
2017-Sep-11 12:30N 33°41' W 118°09'0 0.1
2017-Sep-11 12:00N 33°41' W 118°09'0 0.0
2017-Sep-11 11:30N 33°41' W 118°09'0 0.1
2017-Sep-11 11:00N 33°41' W 118°09'0 0.0
2017-Sep-11 10:30N 33°41' W 118°09'0 0.0
2017-Sep-11 10:00N 33°41' W 118°09'0 0.1
2017-Sep-11 09:30N 33°41' W 118°09'0 0.1
2017-Sep-11 09:00N 33°41' W 118°09'0 0.2
2017-Sep-11 08:24N 33°41' W 118°09'0 0.1
2017-Sep-11 07:45N 33°41' W 118°09'0 0.1
2017-Sep-11 07:27N 33°41' W 118°09'0 0.2
2017-Sep-11 07:00N 33°41' W 118°09'0 0.0
2017-Sep-11 06:30N 33°41' W 118°09'0 0.1
2017-Sep-11 06:00N 33°41' W 118°09'0 0.2
2017-Sep-11 05:30N 33°41' W 118°09'0 0.0
2017-Sep-11 05:00N 33°41' W 118°09'0 0.1
2017-Sep-11 04:30N 33°41' W 118°09'0 0.0
2017-Sep-11 04:00N 33°41' W 118°09'0 0.0
2017-Sep-11 03:30N 33°41' W 118°09'0 0.1
2017-Sep-11 03:00N 33°41' W 118°09'0 0.1
2017-Sep-11 02:30N 33°41' W 118°09'0 0.1
2017-Sep-11 02:00N 33°41' W 118°09'0 0.0
2017-Sep-11 01:30N 33°41' W 118°09'0 0.0
2017-Sep-11 01:00N 33°41' W 118°09'0 0.0
2017-Sep-11 00:24N 33°41' W 118°09'0 0.0
2017-Sep-11 00:00N 33°41' W 118°09'0 0.0
2017-Sep-10 23:30N 33°41' W 118°09'0 0.0
2017-Sep-10 22:57N 33°41' W 118°09'0 0.0
2017-Sep-10 22:30N 33°41' W 118°09'0 0.0
2017-Sep-10 22:00N 33°41' W 118°09'0 0.0
2017-Sep-10 21:21N 33°41' W 118°09'0 0.0
2017-Sep-10 21:00N 33°41' W 118°09'0 0.0
2017-Sep-10 20:30N 33°41' W 118°09'0 0.0
2017-Sep-10 20:00N 33°41' W 118°09'0 0.0
2017-Sep-10 19:27N 33°41' W 118°09'0 0.0
2017-Sep-10 18:51N 33°41' W 118°09'0 0.1
2017-Sep-10 18:30N 33°41' W 118°09'0 0.0
2017-Sep-10 17:57N 33°41' W 118°09'0 0.1
2017-Sep-10 17:30N 33°41' W 118°09'0 0.1
2017-Sep-10 16:57N 33°41' W 118°09'0 0.0
2017-Sep-10 16:30N 33°41' W 118°09'0 0.1
2017-Sep-10 16:00N 33°41' W 118°09'0 0.0
2017-Sep-10 15:30N 33°41' W 118°09'0 0.1
2017-Sep-10 15:00N 33°41' W 118°09'0 0.1
2017-Sep-10 14:00N 33°41' W 118°09'0 0.1
2017-Sep-10 13:30N 33°41' W 118°09'0 0.0
2017-Sep-10 13:00N 33°41' W 118°09'0 0.0
2017-Sep-10 12:30N 33°41' W 118°09'0 0.1
2017-Sep-10 12:00N 33°41' W 118°09'0 0.1
2017-Sep-10 11:30N 33°41' W 118°09'0 0.0
2017-Sep-10 11:00N 33°41' W 118°09'0 0.0
2017-Sep-10 10:30N 33°41' W 118°09'0 0.1
2017-Sep-10 10:00N 33°41' W 118°09'0 0.1
2017-Sep-10 09:30N 33°41' W 118°09'0 0.1
2017-Sep-10 09:00N 33°41' W 118°09'0 0.2
2017-Sep-10 08:30N 33°41' W 118°09'0 0.2
2017-Sep-10 08:00N 33°41' W 118°09'0 0.1
2017-Sep-10 07:24N 33°41' W 118°09'0 0.0
2017-Sep-10 06:57N 33°41' W 118°09'0 0.1
2017-Sep-10 06:30N 33°41' W 118°09'0 0.0
2017-Sep-10 06:00N 33°41' W 118°09'0 0.0
2017-Sep-10 05:30N 33°41' W 118°09'0 0.0
2017-Sep-10 05:00N 33°41' W 118°09'0 0.0
2017-Sep-10 04:30N 33°41' W 118°09'0 0.0
2017-Sep-10 04:00N 33°41' W 118°09'0 0.0
2017-Sep-10 03:30N 33°41' W 118°09'0 0.0
2017-Sep-10 03:00N 33°41' W 118°09'0 0.1
2017-Sep-10 02:30N 33°41' W 118°09'0 0.1
2017-Sep-10 02:00N 33°41' W 118°09'  
Track history (hours):
 
Tides and Currents Weather Stations Pressure Air Temp Water Temp Dewpoint Dewpoint Depression Visibility Wind Speed Wind Dir Waves Ship Positions

Cap Guillaume

Last reported at 2017-Sep-20 01:40 UTC. Time now 2017-Nov-24 18:15 UTC.
Position N 25°37' W 114°31'.
Warning: this ship's position is months out of date.

Length 274 m; draft 9 m.

Type: Tanker. MMSI: 240556000.

Date/timePositionNaut miles runAvg speedWind from/ knotsBaromVisibWave heightAir tempDewpointWater temp
2017-Sep-20 01:40N 25°37' W 114°31'1 7.3
2017-Sep-20 01:30N 25°37' W 114°32'9 7.1
2017-Sep-20 00:17N 25°45' W 114°38'2 7.3
2017-Sep-20 00:00N 25°46' W 114°39'4 7.2
2017-Sep-19 23:30N 25°49' W 114°41'4 6.9
2017-Sep-19 22:56N 25°53' W 114°44'49 7.1
2017-Sep-19 15:55N 26°32' W 115°16'25 7.4
2017-Sep-19 12:31N 26°53' W 115°32'4 7.1
2017-Sep-19 12:01N 26°56' W 115°34'18 7.3
2017-Sep-19 09:30N 27°11' W 115°47'52 7.5
2017-Sep-19 02:35N 27°53' W 116°21'1 7.5
2017-Sep-19 02:30N 27°54' W 116°21'8 7.3
2017-Sep-19 01:29N 28°01' W 116°24'63 7.7
2017-Sep-18 17:19N 29°02' W 116°43'189 7.9
2017-Sep-17 17:24N 32°04' W 117°39'1010.1
2017-Sep-17 16:22N 32°14' W 117°42'411.6
2017-Sep-17 16:00N 32°18' W 117°43'510.9
2017-Sep-17 15:30N 32°24' W 117°45'5 7.7
2017-Sep-17 14:54N 32°28' W 117°46'410.2
2017-Sep-17 14:31N 32°32' W 117°47'4 7.7
2017-Sep-17 14:00N 32°36' W 117°49'4 7.8
2017-Sep-17 13:30N 32°39' W 117°50'4 7.7
2017-Sep-17 13:01N 32°43' W 117°52'4 7.8
2017-Sep-17 12:30N 32°47' W 117°53'4 7.8
2017-Sep-17 12:00N 32°51' W 117°55'4 7.9
2017-Sep-17 11:30N 32°54' W 117°56'4 7.9
2017-Sep-17 11:00N 32°58' W 117°58'4 8.0
2017-Sep-17 10:30N 33°02' W 117°59'4 7.9
2017-Sep-17 10:00N 33°06' W 118°01'4 7.8
2017-Sep-17 09:30N 33°09' W 118°02'4 7.7
2017-Sep-17 09:00N 33°13' W 118°04'4 7.8
2017-Sep-17 08:31N 33°17' W 118°05'4 7.8
2017-Sep-17 08:01N 33°20' W 118°07'4 7.9
2017-Sep-17 07:30N 33°24' W 118°08'4 8.0
2017-Sep-17 07:00N 33°28' W 118°10'4 8.3
2017-Sep-17 06:31N 33°32' W 118°12'4 8.2
2017-Sep-17 06:00N 33°36' W 118°13'4 8.4
2017-Sep-17 05:30N 33°40' W 118°12'4 7.6
2017-Sep-17 05:00N 33°43' W 118°11'2 0.2
2017-Sep-16 20:06N 33°44' W 118°13'0 0.0
2017-Sep-16 20:00N 33°44' W 118°13'0 0.2
2017-Sep-16 19:27N 33°44' W 118°13'0 0.1
2017-Sep-16 18:57N 33°44' W 118°13'0 0.0
2017-Sep-16 17:21N 33°44' W 118°13'0 0.2
2017-Sep-16 17:00N 33°44' W 118°13'0 0.1
2017-Sep-16 16:03N 33°44' W 118°13'0 0.2
2017-Sep-16 15:48N 33°44' W 118°13'0 1.5
2017-Sep-16 15:30N 33°44' W 118°13'1 0.1
2017-Sep-15 23:31N 33°45' W 118°13'0 0.0
2017-Sep-15 23:25N 33°45' W 118°13'0 0.0
2017-Sep-15 16:28N 33°45' W 118°13'4 4.5
2017-Sep-15 15:35N 33°42' W 118°11'1 3.8
2017-Sep-15 15:23N 33°41' W 118°10'1 1.8
2017-Sep-15 14:53N 33°41' W 118°09'0 0.1
2017-Sep-15 14:29N 33°41' W 118°09'0 0.0
2017-Sep-15 13:59N 33°41' W 118°09'0 0.0
2017-Sep-15 13:29N 33°41' W 118°09'0 0.0
2017-Sep-15 12:59N 33°41' W 118°09'0 0.0
2017-Sep-15 12:29N 33°41' W 118°09'0 0.1
2017-Sep-15 11:59N 33°41' W 118°09'0 0.1
2017-Sep-15 11:29N 33°41' W 118°09'0 0.1
2017-Sep-15 10:59N 33°41' W 118°09'0 0.1
2017-Sep-15 08:56N 33°41' W 118°09'0 0.1
2017-Sep-15 08:29N 33°41' W 118°09'0 0.0
2017-Sep-15 07:47N 33°41' W 118°09'0 0.1
2017-Sep-15 07:29N 33°41' W 118°09'0 0.0
2017-Sep-15 06:59N 33°41' W 118°09'0 0.0
2017-Sep-15 06:20N 33°41' W 118°09'0 0.0
2017-Sep-15 05:44N 33°41' W 118°09'0 0.0
2017-Sep-15 05:26N 33°41' W 118°09'0 0.0
2017-Sep-15 04:56N 33°41' W 118°09'0 0.0
2017-Sep-15 04:17N 33°41' W 118°09'0 0.0
2017-Sep-15 03:08N 33°41' W 118°09'0 0.0
2017-Sep-15 02:53N 33°41' W 118°09'0 0.0
2017-Sep-15 01:50N 33°41' W 118°09'0 0.0
2017-Sep-15 01:26N 33°41' W 118°09'0 0.0
2017-Sep-15 00:38N 33°41' W 118°09'0 0.0
2017-Sep-14 23:26N 33°41' W 118°09'0 0.0
2017-Sep-14 20:35N 33°41' W 118°09'0 0.0
2017-Sep-14 20:26N 33°41' W 118°09'0 0.0
2017-Sep-14 19:38N 33°41' W 118°09'0 0.0
2017-Sep-14 19:26N 33°41' W 118°09'0 0.0
2017-Sep-14 18:56N 33°41' W 118°09'0 0.0
2017-Sep-14 18:17N 33°41' W 118°09'0 0.0
2017-Sep-14 17:59N 33°41' W 118°09'0 0.1
2017-Sep-14 15:26N 33°41' W 118°09'0 0.0
2017-Sep-14 14:41N 33°41' W 118°09'0 0.1
2017-Sep-14 14:20N 33°41' W 118°09'0 0.0
2017-Sep-14 13:59N 33°41' W 118°09'0 0.0
2017-Sep-14 13:29N 33°41' W 118°09'0 0.1
2017-Sep-14 12:59N 33°41' W 118°09'0 0.0
2017-Sep-14 12:29N 33°41' W 118°09'0 0.0
2017-Sep-14 11:59N 33°41' W 118°09'0 0.0
2017-Sep-14 11:29N 33°41' W 118°09'0 0.0
2017-Sep-14 10:59N 33°41' W 118°09'0 0.0
2017-Sep-14 10:23N 33°41' W 118°09'0 0.0
2017-Sep-14 09:59N 33°41' W 118°09'0 0.1
2017-Sep-14 09:29N 33°41' W 118°09'0 0.0
2017-Sep-14 08:59N 33°41' W 118°09'0 0.1
2017-Sep-14 05:41N 33°41' W 118°09'0 0.0
2017-Sep-14 05:20N 33°41' W 118°09'0 0.0
2017-Sep-14 03:53N 33°41' W 118°09'0 0.0
2017-Sep-14 02:56N 33°41' W 118°09'0 0.0
2017-Sep-14 02:26N 33°41' W 118°09'0 0.0
2017-Sep-14 01:56N 33°41' W 118°09'0 0.0
2017-Sep-14 01:26N 33°41' W 118°09'0 0.0
2017-Sep-14 00:50N 33°41' W 118°09'0 0.0
2017-Sep-14 00:26N 33°41' W 118°09'0 0.0
2017-Sep-13 23:56N 33°41' W 118°09'0 0.0
2017-Sep-13 23:29N 33°41' W 118°09'0 0.0
2017-Sep-13 22:56N 33°41' W 118°09'0 0.0
2017-Sep-13 22:26N 33°41' W 118°09'0 0.0
2017-Sep-13 21:44N 33°41' W 118°09'0 0.0
2017-Sep-13 21:26N 33°41' W 118°09'0 0.0
2017-Sep-13 20:56N 33°41' W 118°09'0 0.0
2017-Sep-13 20:05N 33°41' W 118°09'0 0.0
2017-Sep-13 19:50N 33°41' W 118°09'0 0.0
2017-Sep-13 19:26N 33°41' W 118°09'0 0.0
2017-Sep-13 18:32N 33°41' W 118°09'0 0.0
2017-Sep-13 18:29N 33°41' W 118°09'0 0.0
2017-Sep-13 17:50N 33°41' W 118°09'0 0.0
2017-Sep-13 17:26N 33°41' W 118°09'0 0.0
2017-Sep-13 16:56N 33°41' W 118°09'0 0.0
2017-Sep-13 16:29N 33°41' W 118°09'0 0.0
2017-Sep-13 15:14N 33°41' W 118°09'0 0.0
2017-Sep-13 14:59N 33°41' W 118°09'0 0.0
2017-Sep-13 14:11N 33°41' W 118°09'0 0.2
2017-Sep-13 13:53N 33°41' W 118°09'0 0.0
2017-Sep-13 11:50N 33°41' W 118°09'0 0.0
2017-Sep-13 11:26N 33°41' W 118°09'0 0.0
2017-Sep-13 10:32N 33°41' W 118°09'0 0.0
2017-Sep-13 10:08N 33°41' W 118°09'0 0.0
2017-Sep-13 09:50N 33°41' W 118°09'0 0.0
2017-Sep-13 09:26N 33°41' W 118°09'0 0.0
2017-Sep-13 08:50N 33°41' W 118°09'0 0.1
2017-Sep-13 07:50N 33°41' W 118°09'0 0.0
2017-Sep-13 07:26N 33°41' W 118°09'0 0.1
2017-Sep-13 06:44N 33°41' W 118°09'0 0.0
2017-Sep-13 06:29N 33°41' W 118°09'0 0.0
2017-Sep-13 05:56N 33°41' W 118°09'0 0.0
2017-Sep-13 05:26N 33°41' W 118°09'0 0.0
2017-Sep-13 04:59N 33°41' W 118°09'0 0.0
2017-Sep-13 04:20N 33°41' W 118°09'0 0.0
2017-Sep-13 03:59N 33°41' W 118°09'0 0.0
2017-Sep-13 03:29N 33°41' W 118°09'0 0.0
2017-Sep-13 02:59N 33°41' W 118°09'0 0.0
2017-Sep-13 02:29N 33°41' W 118°09'0 0.0
2017-Sep-13 01:59N 33°41' W 118°09'0 0.0
2017-Sep-13 01:29N 33°41' W 118°09'0 0.0
2017-Sep-13 00:59N 33°41' W 118°09'0 0.0
2017-Sep-13 00:29N 33°41' W 118°09'0 0.0
2017-Sep-12 23:59N 33°41' W 118°09'0 0.0
2017-Sep-12 23:29N 33°41' W 118°09'0 0.1
2017-Sep-12 22:59N 33°41' W 118°09'0 0.1
2017-Sep-12 22:29N 33°41' W 118°09'0 0.0
2017-Sep-12 21:59N 33°41' W 118°09'0 0.0
2017-Sep-12 21:29N 33°41' W 118°09'0 0.0
2017-Sep-12 20:59N 33°41' W 118°09'0 0.0
2017-Sep-12 20:29N 33°41' W 118°09'0 0.0
2017-Sep-12 19:59N 33°41' W 118°09'0 0.0
2017-Sep-12 19:21N 33°41' W 118°09'0 0.0
2017-Sep-12 18:48N 33°41' W 118°09'0 0.0
2017-Sep-12 18:18N 33°41' W 118°09'0 0.0
2017-Sep-12 18:00N 33°41' W 118°09'0 0.0
2017-Sep-12 16:48N 33°41' W 118°09'0 0.0
2017-Sep-12 16:30N 33°41' W 118°09'0 0.0
2017-Sep-12 15:54N 33°41' W 118°09'0 0.1
2017-Sep-12 15:30N 33°41' W 118°09'0 0.0
2017-Sep-12 15:00N 33°41' W 118°09'0 0.0
2017-Sep-12 14:30N 33°41' W 118°09'0 0.1
2017-Sep-12 13:54N 33°41' W 118°09'0 0.1
2017-Sep-12 13:27N 33°41' W 118°09'0 0.0
2017-Sep-12 12:45N 33°41' W 118°09'0 0.2
2017-Sep-12 12:27N 33°41' W 118°09'0 0.0
2017-Sep-12 12:00N 33°41' W 118°09'0 0.1
2017-Sep-12 11:30N 33°41' W 118°09'0 0.0
2017-Sep-12 11:00N 33°41' W 118°09'0 0.1
2017-Sep-12 10:30N 33°41' W 118°09'0 0.0
2017-Sep-12 10:00N 33°41' W 118°09'0 0.2
2017-Sep-12 09:30N 33°41' W 118°09'0 0.1
2017-Sep-12 09:00N 33°41' W 118°09'0 0.0
2017-Sep-12 08:30N 33°41' W 118°09'0 0.1
2017-Sep-12 08:00N 33°41' W 118°09'0 0.1
2017-Sep-12 07:27N 33°41' W 118°09'0 0.1
2017-Sep-12 07:00N 33°41' W 118°09'0 0.1
2017-Sep-12 06:30N 33°41' W 118°09'0 0.1
2017-Sep-12 06:00N 33°41' W 118°09'0 0.1
2017-Sep-12 05:30N 33°41' W 118°09'0 0.0
2017-Sep-12 05:00N 33°41' W 118°09'0 0.0
2017-Sep-12 04:30N 33°41' W 118°09'0 0.0
2017-Sep-12 04:00N 33°41' W 118°09'0 0.0
2017-Sep-12 03:30N 33°41' W 118°09'0 0.0
2017-Sep-12 03:00N 33°41' W 118°09'0 0.0
2017-Sep-12 02:30N 33°41' W 118°09'0 0.0
2017-Sep-12 02:00N 33°41' W 118°09'0 0.1
2017-Sep-12 01:30N 33°41' W 118°09'0 0.0
2017-Sep-12 00:57N 33°41' W 118°09'0 0.0
2017-Sep-12 00:30N 33°41' W 118°09'0 0.1
2017-Sep-12 00:00N 33°41' W 118°09'0 0.0
2017-Sep-11 23:30N 33°41' W 118°09'0 0.0
2017-Sep-11 23:00N 33°41' W 118°09'0 0.0
2017-Sep-11 22:30N 33°41' W 118°09'0 0.0
2017-Sep-11 22:00N 33°41' W 118°09'0 0.0
2017-Sep-11 21:30N 33°41' W 118°09'0 0.0
2017-Sep-11 21:00N 33°41' W 118°09'0 0.0
2017-Sep-11 20:27N 33°41' W 118°09'0 0.0
2017-Sep-11 19:57N 33°41' W 118°09'0 0.0
2017-Sep-11 19:30N 33°41' W 118°09'0 0.0
2017-Sep-11 19:00N 33°41' W 118°09'0 0.1
2017-Sep-11 18:30N 33°41' W 118°09'0 0.1
2017-Sep-11 17:57N 33°41' W 118°09'0 0.0
2017-Sep-11 17:30N 33°41' W 118°09'0 0.0
2017-Sep-11 16:54N 33°41' W 118°09'0 0.0
2017-Sep-11 16:30N 33°41' W 118°09'0 0.0
2017-Sep-11 16:00N 33°41' W 118°09'0 0.0
2017-Sep-11 15:30N 33°41' W 118°09'0 0.0
2017-Sep-11 15:00N 33°41' W 118°09'0 0.0
2017-Sep-11 14:30N 33°41' W 118°09'0 0.0
2017-Sep-11 14:00N 33°41' W 118°09'0 0.0
2017-Sep-11 13:24N 33°41' W 118°09'0 0.0
2017-Sep-11 12:57N 33°41' W 118°09'0 0.0
2017-Sep-11 12:30N 33°41' W 118°09'0 0.1
2017-Sep-11 12:00N 33°41' W 118°09'0 0.0
2017-Sep-11 11:30N 33°41' W 118°09'0 0.1
2017-Sep-11 11:00N 33°41' W 118°09'0 0.0
2017-Sep-11 10:30N 33°41' W 118°09'0 0.0
2017-Sep-11 10:00N 33°41' W 118°09'0 0.1
2017-Sep-11 09:30N 33°41' W 118°09'0 0.1
2017-Sep-11 09:00N 33°41' W 118°09'0 0.2
2017-Sep-11 08:24N 33°41' W 118°09'0 0.1
2017-Sep-11 07:45N 33°41' W 118°09'0 0.1
2017-Sep-11 07:27N 33°41' W 118°09'0 0.2
2017-Sep-11 07:00N 33°41' W 118°09'0 0.0
2017-Sep-11 06:30N 33°41' W 118°09'0 0.1
2017-Sep-11 06:00N 33°41' W 118°09'0 0.2
2017-Sep-11 05:30N 33°41' W 118°09'0 0.0
2017-Sep-11 05:00N 33°41' W 118°09'0 0.1
2017-Sep-11 04:30N 33°41' W 118°09'0 0.0
2017-Sep-11 04:00N 33°41' W 118°09'0 0.0
2017-Sep-11 03:30N 33°41' W 118°09'0 0.1
2017-Sep-11 03:00N 33°41' W 118°09'0 0.1
2017-Sep-11 02:30N 33°41' W 118°09'0 0.1
2017-Sep-11 02:00N 33°41' W 118°09'0 0.0
2017-Sep-11 01:30N 33°41' W 118°09'0 0.0
2017-Sep-11 01:00N 33°41' W 118°09'0 0.0
2017-Sep-11 00:24N 33°41' W 118°09'0 0.0
2017-Sep-11 00:00N 33°41' W 118°09'0 0.0
2017-Sep-10 23:30N 33°41' W 118°09'0 0.0
2017-Sep-10 22:57N 33°41' W 118°09'0 0.0
2017-Sep-10 22:30N 33°41' W 118°09'0 0.0
2017-Sep-10 22:00N 33°41' W 118°09'0 0.0
2017-Sep-10 21:21N 33°41' W 118°09'0 0.0
2017-Sep-10 21:00N 33°41' W 118°09'0 0.0
2017-Sep-10 20:30N 33°41' W 118°09'0 0.0
2017-Sep-10 20:00N 33°41' W 118°09'0 0.0
2017-Sep-10 19:27N 33°41' W 118°09'0 0.0
2017-Sep-10 18:51N 33°41' W 118°09'0 0.1
2017-Sep-10 18:30N 33°41' W 118°09'0 0.0
2017-Sep-10 17:57N 33°41' W 118°09'0 0.1
2017-Sep-10 17:30N 33°41' W 118°09'0 0.1
2017-Sep-10 16:57N 33°41' W 118°09'0 0.0
2017-Sep-10 16:30N 33°41' W 118°09'0 0.1
2017-Sep-10 16:00N 33°41' W 118°09'0 0.0
2017-Sep-10 15:30N 33°41' W 118°09'0 0.1
2017-Sep-10 15:00N 33°41' W 118°09'0 0.1
2017-Sep-10 14:00N 33°41' W 118°09'0 0.1
2017-Sep-10 13:30N 33°41' W 118°09'0 0.0
2017-Sep-10 13:00N 33°41' W 118°09'0 0.0
2017-Sep-10 12:30N 33°41' W 118°09'0 0.1
2017-Sep-10 12:00N 33°41' W 118°09'0 0.1
2017-Sep-10 11:30N 33°41' W 118°09'0 0.0
2017-Sep-10 11:00N 33°41' W 118°09'0 0.0
2017-Sep-10 10:30N 33°41' W 118°09'0 0.1
2017-Sep-10 10:00N 33°41' W 118°09'0 0.1
2017-Sep-10 09:30N 33°41' W 118°09'0 0.1
2017-Sep-10 09:00N 33°41' W 118°09'0 0.2
2017-Sep-10 08:30N 33°41' W 118°09'0 0.2
2017-Sep-10 08:00N 33°41' W 118°09'0 0.1
2017-Sep-10 07:24N 33°41' W 118°09'0 0.0
2017-Sep-10 06:57N 33°41' W 118°09'0 0.1
2017-Sep-10 06:30N 33°41' W 118°09'0 0.0
2017-Sep-10 06:00N 33°41' W 118°09'0 0.0
2017-Sep-10 05:30N 33°41' W 118°09'0 0.0
2017-Sep-10 05:00N 33°41' W 118°09'0 0.0
2017-Sep-10 04:30N 33°41' W 118°09'0 0.0
2017-Sep-10 04:00N 33°41' W 118°09'0 0.0
2017-Sep-10 03:30N 33°41' W 118°09'0 0.0
2017-Sep-10 03:00N 33°41' W 118°09'0 0.1
2017-Sep-10 02:30N 33°41' W 118°09'0 0.1
2017-Sep-10 02:00N 33°41' W 118°09'  

Dump ship's entire track history